Time;durP1;ratioP1;P1;durP2;ratioP2;P2;SDS_P1;SDS_P2;PMS_P1;PMS_P2;Temp;Humidity;BMP_temperature;BMP_pressure;BME280_temperature;BME280_humidity;BME280_pressure;Samples;Min_cycle;Max_cycle;Signal;HPM_P1;HPM_P2
2022/09/08 00:01:35;;;;;;;20.90;14.30;;;;;;;;;;4935282;28;20102;-72
2022/09/08 00:04:02;;;;;;;18.00;13.45;;;;;;;;;;5017082;28;20484;-71
2022/09/08 00:06:31;;;;;;;20.48;14.43;;;;;;;;;;4935025;28;20031;-72
2022/09/08 00:08:58;;;;;;;17.05;14.20;;;;;;;;;;4938254;28;20020;-72
2022/09/08 00:11:26;;;;;;;19.65;13.98;;;;;;;;;;4942013;29;20031;-72
2022/09/08 00:13:52;;;;;;;23.92;15.30;;;;;;;;;;4939083;29;20031;-71
2022/09/08 00:16:18;;;;;;;21.02;14.25;;;;;;;;;;4934907;28;20423;-71
2022/09/08 00:18:44;;;;;;;21.25;14.40;;;;;;;;;;5017270;28;20016;-72
2022/09/08 00:21:10;;;;;;;18.33;14.07;;;;;;;;;;5017378;28;20032;-74
2022/09/08 00:23:37;;;;;;;25.48;15.15;;;;;;;;;;4934684;28;20059;-70
2022/09/08 00:26:03;;;;;;;17.17;14.07;;;;;;;;;;4933923;28;20056;-70
2022/09/08 00:28:30;;;;;;;18.58;14.55;;;;;;;;;;4934225;28;20042;-71
2022/09/08 00:30:56;;;;;;;25.38;16.23;;;;;;;;;;4934582;29;20503;-71
2022/09/08 00:33:22;;;;;;;23.50;15.68;;;;;;;;;;4934662;28;20036;-70
2022/09/08 00:35:49;;;;;;;23.88;17.27;;;;;;;;;;4933665;28;20543;-71
2022/09/08 00:38:15;;;;;;;27.05;16.60;;;;;;;;;;4933836;29;20477;-70
2022/09/08 00:40:46;;;;;;;28.77;16.08;;;;;;;;;;4934125;28;20111;-71
2022/09/08 00:43:30;;;;;;;24.33;16.50;;;;;;;;;;4934003;28;20063;-71
2022/09/08 00:45:56;;;;;;;21.07;15.70;;;;;;;;;;4934097;28;20031;-71
2022/09/08 00:48:22;;;;;;;27.23;16.40;;;;;;;;;;4933937;28;20066;-71
2022/09/08 00:50:48;;;;;;;25.13;16.02;;;;;;;;;;4934213;28;20033;-70
2022/09/08 00:53:16;;;;;;;21.10;16.60;;;;;;;;;;5015727;28;20028;-71
2022/09/08 00:55:41;;;;;;;24.10;16.10;;;;;;;;;;4933642;28;20032;-70
2022/09/08 00:58:08;;;;;;;20.20;17.20;;;;;;;;;;4933654;28;20144;-71
2022/09/08 01:00:37;;;;;;;26.17;18.08;;;;;;;;;;4933947;28;20409;-71
2022/09/08 01:03:06;;;;;;;20.50;16.20;;;;;;;;;;4933721;28;20031;-70
2022/09/08 01:05:39;;;;;;;26.27;17.10;;;;;;;;;;4933308;28;20043;-71
2022/09/08 01:13:36;;;;;;;26.92;17.70;;;;;;;;;;4933582;29;20094;-70
2022/09/08 01:16:03;;;;;;;23.02;16.65;;;;;;;;;;5015526;28;20031;-71
2022/09/08 01:18:29;;;;;;;25.55;16.48;;;;;;;;;;4933156;28;20114;-70
2022/09/08 01:21:02;;;;;;;21.52;16.77;;;;;;;;;;4933238;29;20054;-70
2022/09/08 01:23:36;;;;;;;21.50;16.67;;;;;;;;;;4933098;28;20378;-72
2022/09/08 01:26:18;;;;;;;25.50;16.57;;;;;;;;;;4933124;28;20054;-70
2022/09/08 01:28:55;;;;;;;25.58;17.45;;;;;;;;;;4933825;28;20031;-70
2022/09/08 01:31:23;;;;;;;28.92;17.55;;;;;;;;;;4933369;28;20106;-71
2022/09/08 01:33:49;;;;;;;28.33;17.05;;;;;;;;;;4932367;29;20138;-70
2022/09/08 01:36:16;;;;;;;26.98;16.98;;;;;;;;;;4932455;28;20464;-71
2022/09/08 01:38:42;;;;;;;21.52;16.35;;;;;;;;;;4933706;28;20098;-72
2022/09/08 01:41:08;;;;;;;21.38;16.60;;;;;;;;;;5014700;28;20024;-71
2022/09/08 01:43:34;;;;;;;26.73;16.00;;;;;;;;;;4933218;28;20027;-70
2022/09/08 01:46:00;;;;;;;26.52;17.48;;;;;;;;;;4933243;28;20032;-70
2022/09/08 01:48:26;;;;;;;23.38;18.02;;;;;;;;;;4933012;28;20032;-70
2022/09/08 01:50:52;;;;;;;26.48;17.23;;;;;;;;;;4933911;28;20028;-71
2022/09/08 01:53:19;;;;;;;22.00;16.30;;;;;;;;;;4949095;28;20047;-69
2022/09/08 01:55:45;;;;;;;22.42;16.48;;;;;;;;;;4934259;29;20027;-71
2022/09/08 01:58:11;;;;;;;23.92;17.40;;;;;;;;;;4932989;28;20032;-71
2022/09/08 02:00:40;;;;;;;24.40;16.88;;;;;;;;;;4933208;28;20027;-72
2022/09/08 02:03:06;;;;;;;18.95;15.85;;;;;;;;;;4932554;29;20020;-70
2022/09/08 02:05:32;;;;;;;22.33;16.33;;;;;;;;;;4932698;28;20028;-70
2022/09/08 02:07:58;;;;;;;22.17;16.25;;;;;;;;;;4933072;28;20103;-70
2022/09/08 02:10:24;;;;;;;22.35;16.67;;;;;;;;;;4932711;28;20043;-70
2022/09/08 02:12:49;;;;;;;24.90;17.08;;;;;;;;;;4932478;28;20040;-70
2022/09/08 02:15:15;;;;;;;22.40;16.48;;;;;;;;;;4932409;28;20035;-70
2022/09/08 02:17:41;;;;;;;21.30;16.58;;;;;;;;;;4932321;28;20028;-69
2022/09/08 02:20:08;;;;;;;30.67;15.68;;;;;;;;;;4932671;28;20032;-72
2022/09/08 02:22:34;;;;;;;24.58;15.25;;;;;;;;;;4932443;28;20050;-71
2022/09/08 02:24:59;;;;;;;27.48;16.35;;;;;;;;;;4932345;28;20106;-70
2022/09/08 02:27:26;;;;;;;23.70;16.13;;;;;;;;;;4932115;28;20031;-70
2022/09/08 02:29:52;;;;;;;21.05;15.50;;;;;;;;;;4932305;28;20031;-72
2022/09/08 02:32:17;;;;;;;20.85;15.68;;;;;;;;;;4932370;28;20234;-70
2022/09/08 02:34:43;;;;;;;24.50;15.23;;;;;;;;;;4932488;28;20028;-70
2022/09/08 02:37:09;;;;;;;22.52;15.15;;;;;;;;;;4932501;28;20067;-70
2022/09/08 02:39:35;;;;;;;20.02;13.68;;;;;;;;;;4932948;28;20428;-71
2022/09/08 02:42:01;;;;;;;21.60;13.52;;;;;;;;;;4932563;28;20117;-71
2022/09/08 02:44:27;;;;;;;20.25;13.88;;;;;;;;;;4932459;28;20358;-71
2022/09/08 02:46:53;;;;;;;17.80;12.50;;;;;;;;;;4932227;28;20032;-71
2022/09/08 02:49:19;;;;;;;22.88;13.32;;;;;;;;;;4999527;28;20032;-71
2022/09/08 02:51:45;;;;;;;19.60;13.88;;;;;;;;;;4935910;28;20032;-71
2022/09/08 02:54:11;;;;;;;18.83;14.07;;;;;;;;;;4936784;28;20086;-73
2022/09/08 02:56:37;;;;;;;21.92;14.43;;;;;;;;;;4936130;29;20389;-73
2022/09/08 02:59:03;;;;;;;20.17;14.15;;;;;;;;;;5002736;28;20032;-73
2022/09/08 03:01:29;;;;;;;17.27;13.35;;;;;;;;;;4935629;28;20073;-73
2022/09/08 03:03:55;;;;;;;20.33;13.65;;;;;;;;;;4934428;29;20074;-72
2022/09/08 03:06:21;;;;;;;25.35;14.27;;;;;;;;;;4934498;28;20027;-72
2022/09/08 03:08:47;;;;;;;25.52;14.68;;;;;;;;;;4934436;28;20106;-72
2022/09/08 03:11:13;;;;;;;24.75;14.20;;;;;;;;;;4934245;28;20500;-73
2022/09/08 03:13:39;;;;;;;20.73;14.60;;;;;;;;;;4934654;28;20154;-73
2022/09/08 03:16:06;;;;;;;19.88;14.07;;;;;;;;;;4935341;28;20063;-73
2022/09/08 03:18:32;;;;;;;22.92;14.35;;;;;;;;;;4936353;28;20541;-74
2022/09/08 03:21:03;;;;;;;20.42;13.57;;;;;;;;;;4935374;28;20103;-75
2022/09/08 03:23:30;;;;;;;21.77;14.13;;;;;;;;;;4934585;28;20040;-74
2022/09/08 03:26:00;;;;;;;21.65;15.27;;;;;;;;;;4934742;29;20050;-74
2022/09/08 03:28:26;;;;;;;20.52;13.35;;;;;;;;;;4935157;28;20393;-72
2022/09/08 03:30:52;;;;;;;20.42;14.00;;;;;;;;;;4934335;28;20031;-73
2022/09/08 03:33:18;;;;;;;27.67;13.50;;;;;;;;;;4934458;28;20024;-72
2022/09/08 03:35:46;;;;;;;17.10;12.48;;;;;;;;;;4934302;28;20028;-74
2022/09/08 03:38:12;;;;;;;22.25;14.73;;;;;;;;;;4934339;29;20028;-72
2022/09/08 03:40:39;;;;;;;17.55;12.90;;;;;;;;;;4937280;28;20032;-74
2022/09/08 03:43:06;;;;;;;19.38;14.05;;;;;;;;;;4936566;29;20074;-72
2022/09/08 03:45:31;;;;;;;23.63;12.93;;;;;;;;;;4934338;28;20032;-73
2022/09/08 03:47:57;;;;;;;18.65;12.82;;;;;;;;;;4934170;28;20041;-74
2022/09/08 03:50:24;;;;;;;18.63;11.93;;;;;;;;;;4934548;28;20024;-72
2022/09/08 03:52:50;;;;;;;22.20;14.95;;;;;;;;;;4933988;29;20397;-72
2022/09/08 03:55:16;;;;;;;22.70;13.88;;;;;;;;;;4933974;28;20032;-73
2022/09/08 03:57:42;;;;;;;19.73;11.68;;;;;;;;;;4933661;28;20086;-73
2022/09/08 04:00:09;;;;;;;17.05;12.02;;;;;;;;;;4934776;28;20030;-73
2022/09/08 04:02:35;;;;;;;18.48;11.65;;;;;;;;;;4934361;28;20024;-73
2022/09/08 04:05:02;;;;;;;18.23;11.13;;;;;;;;;;4933819;28;20024;-73
2022/09/08 04:07:33;;;;;;;20.38;12.70;;;;;;;;;;4934927;29;20027;-73
2022/09/08 04:09:59;;;;;;;16.33;11.05;;;;;;;;;;4933852;29;20031;-73
2022/09/08 04:12:26;;;;;;;16.70;10.63;;;;;;;;;;4936669;28;20392;-74
2022/09/08 04:14:52;;;;;;;22.92;11.75;;;;;;;;;;4933883;28;20070;-71
2022/09/08 04:17:19;;;;;;;20.77;11.43;;;;;;;;;;4933241;28;20116;-71
2022/09/08 04:19:47;;;;;;;19.52;10.27;;;;;;;;;;4933414;28;20400;-72
2022/09/08 04:22:13;;;;;;;15.02;9.57;;;;;;;;;;4933005;29;20031;-72
2022/09/08 04:24:39;;;;;;;17.52;10.38;;;;;;;;;;4999147;28;20032;-73
2022/09/08 04:27:05;;;;;;;21.00;11.48;;;;;;;;;;4935922;28;20034;-75
2022/09/08 04:29:31;;;;;;;20.02;10.82;;;;;;;;;;4933061;28;20570;-73
2022/09/08 04:31:57;;;;;;;17.63;10.02;;;;;;;;;;4933130;28;20032;-73
2022/09/08 04:34:23;;;;;;;16.73;9.57;;;;;;;;;;4933004;28;20035;-74
2022/09/08 04:36:49;;;;;;;18.77;11.73;;;;;;;;;;4932589;29;20024;-74
2022/09/08 04:39:16;;;;;;;24.92;12.25;;;;;;;;;;4933357;28;20024;-73
2022/09/08 04:41:43;;;;;;;20.52;12.68;;;;;;;;;;4933241;29;20489;-74
2022/09/08 04:44:09;;;;;;;17.08;10.20;;;;;;;;;;4933158;29;20047;-74
2022/09/08 04:46:36;;;;;;;18.02;9.82;;;;;;;;;;4932942;28;20035;-73
2022/09/08 04:49:02;;;;;;;18.85;10.35;;;;;;;;;;4933303;29;20020;-73
2022/09/08 04:51:29;;;;;;;17.52;10.02;;;;;;;;;;4932975;28;20042;-72
2022/09/08 04:53:56;;;;;;;22.08;10.70;;;;;;;;;;4933569;28;20050;-74
2022/09/08 04:56:23;;;;;;;16.30;9.80;;;;;;;;;;4932708;28;20031;-73
2022/09/08 04:58:49;;;;;;;15.77;10.63;;;;;;;;;;4933222;29;20027;-73
2022/09/08 05:01:20;;;;;;;16.60;10.25;;;;;;;;;;4998811;28;20073;-72
2022/09/08 05:03:47;;;;;;;22.83;11.23;;;;;;;;;;4933260;28;20062;-72
2022/09/08 05:06:15;;;;;;;22.00;10.32;;;;;;;;;;4933551;28;20364;-72
2022/09/08 05:08:48;;;;;;;14.27;10.02;;;;;;;;;;4933749;28;20111;-71
2022/09/08 05:11:15;;;;;;;20.55;10.57;;;;;;;;;;4933391;28;20095;-75
2022/09/08 05:13:41;;;;;;;18.70;10.00;;;;;;;;;;4933343;28;20038;-73
2022/09/08 05:16:08;;;;;;;18.08;11.15;;;;;;;;;;4933918;28;20042;-73
2022/09/08 05:18:35;;;;;;;18.60;9.88;;;;;;;;;;4933375;28;20062;-74
2022/09/08 05:21:02;;;;;;;16.20;8.73;;;;;;;;;;4932694;29;20060;-74
2022/09/08 05:23:28;;;;;;;21.48;9.38;;;;;;;;;;4932136;29;20138;-72
2022/09/08 05:26:02;;;;;;;19.70;9.18;;;;;;;;;;4933575;29;20024;-75
2022/09/08 05:28:29;;;;;;;13.68;8.70;;;;;;;;;;4932234;29;20440;-73
2022/09/08 05:30:56;;;;;;;17.05;9.40;;;;;;;;;;4932231;29;20086;-73
2022/09/08 05:33:22;;;;;;;14.65;8.85;;;;;;;;;;4997724;28;20073;-72
2022/09/08 05:35:48;;;;;;;18.25;9.50;;;;;;;;;;4932117;29;20035;-71
2022/09/08 05:38:14;;;;;;;21.98;8.48;;;;;;;;;;4932744;29;20492;-73
2022/09/08 05:40:40;;;;;;;14.45;8.38;;;;;;;;;;4932470;29;20032;-73
2022/09/08 05:43:06;;;;;;;19.42;8.38;;;;;;;;;;4932175;29;20046;-72
2022/09/08 05:45:32;;;;;;;14.23;8.80;;;;;;;;;;4931790;29;20028;-73
2022/09/08 05:47:58;;;;;;;19.30;8.30;;;;;;;;;;4998231;28;20067;-73
2022/09/08 05:50:24;;;;;;;15.80;8.10;;;;;;;;;;4932448;29;20363;-71
2022/09/08 05:52:50;;;;;;;22.67;7.88;;;;;;;;;;4932807;29;20090;-70
2022/09/08 05:55:17;;;;;;;14.82;7.30;;;;;;;;;;4997893;28;20032;-71
2022/09/08 05:57:43;;;;;;;19.45;8.75;;;;;;;;;;4931698;29;20484;-71
2022/09/08 06:00:09;;;;;;;14.82;8.35;;;;;;;;;;4932431;29;20048;-74
2022/09/08 06:02:35;;;;;;;15.00;8.35;;;;;;;;;;4932351;29;20477;-72
2022/09/08 06:05:01;;;;;;;15.93;7.63;;;;;;;;;;4997666;28;20035;-71
2022/09/08 06:07:27;;;;;;;18.25;8.07;;;;;;;;;;4931956;29;20455;-73
2022/09/08 06:09:54;;;;;;;12.85;8.18;;;;;;;;;;4932367;29;20062;-71
2022/09/08 06:12:20;;;;;;;22.48;8.10;;;;;;;;;;4932802;29;20063;-71
2022/09/08 06:14:46;;;;;;;13.60;7.65;;;;;;;;;;4937679;29;20170;-73
2022/09/08 06:17:12;;;;;;;17.17;7.25;;;;;;;;;;4944459;29;20035;-72
2022/09/08 06:19:38;;;;;;;13.68;7.25;;;;;;;;;;5009053;28;20039;-72
2022/09/08 06:22:04;;;;;;;15.85;7.97;;;;;;;;;;4933266;29;20039;-72
2022/09/08 06:24:30;;;;;;;19.60;7.43;;;;;;;;;;4936509;29;20547;-73
2022/09/08 06:27:08;;;;;;;12.90;6.82;;;;;;;;;;4940642;29;20036;-73
2022/09/08 06:29:43;;;;;;;17.80;7.60;;;;;;;;;;4944887;29;20040;-74
2022/09/08 06:32:18;;;;;;;22.52;7.45;;;;;;;;;;4937553;29;20032;-74
2022/09/08 06:34:50;;;;;;;14.65;6.78;;;;;;;;;;4954233;29;20500;-74
2022/09/08 06:37:27;;;;;;;16.80;7.32;;;;;;;;;;4938729;29;20036;-74
2022/09/08 06:39:58;;;;;;;16.83;7.22;;;;;;;;;;4938068;29;20019;-75
2022/09/08 06:42:39;;;;;;;16.58;7.15;;;;;;;;;;4936926;29;20448;-73
2022/09/08 06:45:09;;;;;;;12.18;6.80;;;;;;;;;;4934954;29;20492;-74
2022/09/08 06:47:39;;;;;;;10.40;6.20;;;;;;;;;;4935997;29;20043;-70
2022/09/08 06:50:07;;;;;;;16.90;7.32;;;;;;;;;;4935397;28;20032;-70
2022/09/08 06:52:46;;;;;;;19.73;7.20;;;;;;;;;;4934971;29;20082;-73
2022/09/08 06:55:18;;;;;;;16.80;6.88;;;;;;;;;;4935806;29;20114;-77
2022/09/08 06:58:03;;;;;;;21.10;6.78;;;;;;;;;;4937644;29;20027;-75
2022/09/08 07:00:34;;;;;;;12.05;6.22;;;;;;;;;;5004630;28;20051;-75
2022/09/08 07:03:12;;;;;;;19.42;6.90;;;;;;;;;;4938004;28;20031;-74
2022/09/08 07:05:56;;;;;;;18.35;6.78;;;;;;;;;;4934746;29;20031;-76
2022/09/08 07:08:25;;;;;;;14.60;5.93;;;;;;;;;;4934574;29;20104;-75
2022/09/08 07:10:57;;;;;;;12.50;6.13;;;;;;;;;;5000352;28;20066;-74
2022/09/08 07:13:42;;;;;;;16.15;6.40;;;;;;;;;;4934587;29;20119;-75
2022/09/08 07:16:15;;;;;;;16.38;6.30;;;;;;;;;;4934804;29;20131;-74
2022/09/08 07:18:44;;;;;;;16.33;5.70;;;;;;;;;;4935026;29;20554;-73
2022/09/08 07:21:23;;;;;;;18.23;5.80;;;;;;;;;;4935010;28;20119;-75
2022/09/08 07:23:50;;;;;;;16.02;5.82;;;;;;;;;;4941737;29;20067;-76
2022/09/08 07:26:34;;;;;;;13.93;5.40;;;;;;;;;;4935572;29;20026;-74
2022/09/08 07:29:06;;;;;;;15.52;5.38;;;;;;;;;;4935546;29;20024;-75
2022/09/08 07:31:36;;;;;;;11.75;5.68;;;;;;;;;;5000860;28;20038;-75
2022/09/08 07:34:10;;;;;;;13.55;5.70;;;;;;;;;;5000231;28;20024;-73
2022/09/08 07:36:46;;;;;;;17.92;6.10;;;;;;;;;;4933985;29;20034;-74
2022/09/08 07:39:23;;;;;;;10.07;4.57;;;;;;;;;;4934328;29;20028;-73
2022/09/08 07:41:53;;;;;;;15.95;5.60;;;;;;;;;;4954092;28;20025;-73
2022/09/08 07:44:20;;;;;;;14.80;5.18;;;;;;;;;;5036071;28;20036;-75
2022/09/08 07:46:45;;;;;;;13.55;5.55;;;;;;;;;;5037101;28;20112;-76
2022/09/08 07:49:22;;;;;;;13.15;5.22;;;;;;;;;;5039037;28;20056;-75
2022/09/08 07:52:07;;;;;;;12.55;5.38;;;;;;;;;;5022584;28;20025;-74
2022/09/08 07:54:54;;;;;;;14.65;6.13;;;;;;;;;;5039571;28;20048;-75
2022/09/08 07:57:26;;;;;;;10.95;4.90;;;;;;;;;;5044788;28;20055;-75
2022/09/08 08:00:09;;;;;;;16.08;5.40;;;;;;;;;;5040868;28;20018;-74
2022/09/08 08:02:49;;;;;;;9.65;4.82;;;;;;;;;;5045514;28;20025;-75
2022/09/08 08:05:23;;;;;;;15.82;5.63;;;;;;;;;;5049638;28;20026;-75
2022/09/08 08:07:59;;;;;;;12.85;6.00;;;;;;;;;;5046248;28;20029;-73
2022/09/08 08:10:28;;;;;;;12.90;5.07;;;;;;;;;;5050113;28;20030;-74
2022/09/08 08:12:53;;;;;;;10.27;4.82;;;;;;;;;;5049046;28;20117;-73
2022/09/08 08:15:49;;;;;;;12.25;5.30;;;;;;;;;;5043829;28;20037;-74
2022/09/08 08:18:15;;;;;;;;;;;;;;;;;;5014965;28;20049;-74
2022/09/08 08:20:59;;;;;;;7.85;4.68;;;;;;;;;;5036322;28;19905;-74
2022/09/08 08:23:25;;;;;;;12.70;4.57;;;;;;;;;;5017731;28;20367;-76
2022/09/08 08:25:51;;;;;;;18.75;4.78;;;;;;;;;;5017281;28;20048;-74
2022/09/08 08:28:19;;;;;;;13.55;4.93;;;;;;;;;;5034050;28;20026;-76
2022/09/08 08:31:03;;;;;;;13.73;5.28;;;;;;;;;;5035251;28;20044;-73
2022/09/08 08:33:32;;;;;;;11.68;4.72;;;;;;;;;;5035981;28;20580;-74
2022/09/08 08:36:05;;;;;;;11.88;4.65;;;;;;;;;;5034605;28;20025;-76
2022/09/08 08:38:37;;;;;;;14.75;4.95;;;;;;;;;;5016380;28;20509;-74
2022/09/08 08:41:07;;;;;;;11.85;4.90;;;;;;;;;;5017086;28;20490;-74
2022/09/08 08:43:33;;;;;;;9.57;4.60;;;;;;;;;;5037669;28;20479;-74
2022/09/08 08:45:59;;;;;;;11.70;4.40;;;;;;;;;;5023490;28;20441;-76
2022/09/08 08:48:25;;;;;;;11.32;4.50;;;;;;;;;;5034453;28;20025;-74
2022/09/08 08:50:57;;;;;;;11.52;4.72;;;;;;;;;;5035283;28;20029;-74
2022/09/08 08:53:29;;;;;;;12.52;4.75;;;;;;;;;;5033746;28;20056;-75
2022/09/08 08:55:55;;;;;;;13.55;5.10;;;;;;;;;;5034701;28;20443;-75
2022/09/08 08:58:27;;;;;;;10.60;4.03;;;;;;;;;;5034382;28;20017;-76
2022/09/08 09:00:53;;;;;;;13.55;4.50;;;;;;;;;;5034437;28;20485;-75
2022/09/08 09:03:19;;;;;;;13.27;4.53;;;;;;;;;;5026213;28;20026;-76
2022/09/08 09:05:59;;;;;;;10.23;3.85;;;;;;;;;;5034214;28;20025;-77
2022/09/08 09:08:40;;;;;;;14.55;4.03;;;;;;;;;;5034309;28;20094;-75
2022/09/08 09:11:25;;;;;;;9.27;4.57;;;;;;;;;;5033074;28;20114;-74
2022/09/08 09:14:12;;;;;;;14.20;4.25;;;;;;;;;;5032653;28;20390;-77
2022/09/08 09:16:54;;;;;;;9.55;4.25;;;;;;;;;;5015095;28;20029;-75
2022/09/08 09:19:32;;;;;;;12.02;4.70;;;;;;;;;;5033325;28;20056;-76
2022/09/08 09:22:27;;;;;;;12.68;4.50;;;;;;;;;;5033756;28;20037;-76
2022/09/08 09:25:12;;;;;;;13.45;4.35;;;;;;;;;;4963984;28;20079;-76
2022/09/08 09:27:44;;;;;;;12.95;3.97;;;;;;;;;;5032797;28;20033;-74
2022/09/08 09:30:10;;;;;;;11.05;3.92;;;;;;;;;;5032436;28;20495;-75
2022/09/08 09:32:47;;;;;;;9.23;3.97;;;;;;;;;;5016004;28;20029;-78
2022/09/08 09:35:32;;;;;;;12.13;3.85;;;;;;;;;;5032627;28;20490;-75
2022/09/08 09:38:11;;;;;;;8.63;4.35;;;;;;;;;;5032719;28;20033;-75
2022/09/08 09:41:15;;;;;;;16.05;4.10;;;;;;;;;;5033484;28;20107;-76
2022/09/08 09:43:53;;;;;;;8.73;3.78;;;;;;;;;;4935747;29;20032;-74
2022/09/08 09:46:39;;;;;;;13.45;3.70;;;;;;;;;;4917031;29;20509;-75
2022/09/08 09:49:34;;;;;;;15.00;4.03;;;;;;;;;;5006419;28;20040;-75
2022/09/08 09:52:00;;;;;;;;;;;;;;;;;;5019370;28;20085;-73
2022/09/08 09:54:55;;;;;;;17.08;4.45;;;;;;;;;;5032678;28;19912;-75
2022/09/08 09:57:21;;;;;;;;;;;;;;;;;;5015168;28;20402;-75
2022/09/08 09:59:53;;;;;;;11.55;4.60;;;;;;;;;;5032547;28;19905;-75
2022/09/08 10:02:28;;;;;;;12.75;4.57;;;;;;;;;;5032517;28;20025;-76
2022/09/08 10:05:00;;;;;;;13.15;4.38;;;;;;;;;;5032353;28;20036;-76
2022/09/08 10:07:28;;;;;;;17.20;4.47;;;;;;;;;;5032394;28;20502;-76
2022/09/08 10:10:12;;;;;;;9.85;4.85;;;;;;;;;;5017501;28;20025;-76
2022/09/08 10:12:52;;;;;;;12.65;4.88;;;;;;;;;;5018817;28;20037;-76
2022/09/08 10:15:31;;;;;;;17.10;4.95;;;;;;;;;;5019659;28;20022;-76
2022/09/08 10:18:06;;;;;;;12.90;4.50;;;;;;;;;;5034834;28;20469;-74
2022/09/08 10:20:35;;;;;;;8.95;3.92;;;;;;;;;;5032424;28;20022;-75
2022/09/08 10:23:01;;;;;;;11.50;4.60;;;;;;;;;;5031761;28;20041;-75
2022/09/08 10:25:46;;;;;;;12.07;4.70;;;;;;;;;;5031858;28;20026;-74
2022/09/08 10:28:30;;;;;;;13.40;4.18;;;;;;;;;;5031946;28;20018;-74
2022/09/08 10:30:59;;;;;;;8.88;4.10;;;;;;;;;;5015427;28;20029;-74
2022/09/08 10:33:25;;;;;;;11.02;4.30;;;;;;;;;;5031824;28;20048;-74
2022/09/08 10:36:11;;;;;;;13.63;4.25;;;;;;;;;;5031520;28;20025;-74
2022/09/08 10:38:37;;;;;;;12.30;4.47;;;;;;;;;;5031998;28;20546;-74
2022/09/08 10:41:15;;;;;;;23.83;7.38;;;;;;;;;;5031804;28;20037;-74
2022/09/08 10:43:55;;;;;;;9.05;4.30;;;;;;;;;;5031573;28;20033;-74
2022/09/08 10:46:45;;;;;;;11.15;4.25;;;;;;;;;;5031544;28;20021;-75
2022/09/08 10:49:14;;;;;;;19.65;4.50;;;;;;;;;;5013758;28;20080;-73
2022/09/08 10:51:59;;;;;;;16.60;5.35;;;;;;;;;;5031536;28;20119;-75
2022/09/08 10:54:25;;;;;;;12.57;4.65;;;;;;;;;;5032355;28;20021;-74
2022/09/08 10:56:54;;;;;;;8.38;4.05;;;;;;;;;;5035733;28;20397;-75
2022/09/08 10:59:35;;;;;;;15.77;4.63;;;;;;;;;;5023274;28;20029;-73
2022/09/08 11:02:20;;;;;;;16.73;4.55;;;;;;;;;;5042111;28;20032;-74
2022/09/08 11:05:09;;;;;;;15.32;4.32;;;;;;;;;;5042187;28;20071;-75
2022/09/08 11:07:53;;;;;;;14.13;4.20;;;;;;;;;;5041247;28;20022;-76
2022/09/08 11:10:22;;;;;;;11.95;5.25;;;;;;;;;;5043780;28;20153;-75
2022/09/08 11:13:07;;;;;;;14.05;6.38;;;;;;;;;;5025252;28;20121;-73
2022/09/08 11:15:36;;;;;;;21.38;6.75;;;;;;;;;;5049700;28;20033;-73
2022/09/08 11:18:19;;;;;;;24.30;8.68;;;;;;;;;;5050703;28;20112;-74
2022/09/08 11:20:51;;;;;;;34.40;13.95;;;;;;;;;;5036222;28;20025;-74
2022/09/08 11:23:23;;;;;;;25.27;13.38;;;;;;;;;;5017659;28;20049;-74
2022/09/08 11:25:59;;;;;;;22.45;8.07;;;;;;;;;;5035617;28;20029;-76
2022/09/08 11:28:35;;;;;;;21.92;7.40;;;;;;;;;;5019561;28;20079;-73
2022/09/08 11:31:19;;;;;;;23.05;7.55;;;;;;;;;;5035363;28;20028;-74
2022/09/08 11:34:04;;;;;;;20.30;7.53;;;;;;;;;;5035187;28;20080;-73
2022/09/08 11:36:53;;;;;;;21.25;8.02;;;;;;;;;;5036207;28;20040;-74
2022/09/08 11:39:45;;;;;;;19.95;7.47;;;;;;;;;;5039154;28;20095;-73
2022/09/08 11:42:30;;;;;;;15.80;7.72;;;;;;;;;;5046579;28;20444;-74
2022/09/08 11:44:56;;;;;;;;;;;;;;;;;;5054424;28;20018;-73
2022/09/08 11:47:28;;;;;;;15.82;7.57;;;;;;;;;;5055328;28;19893;-74
2022/09/08 11:50:04;;;;;;;22.20;7.00;;;;;;;;;;5054610;28;20025;-74
2022/09/08 11:52:50;;;;;;;16.58;7.53;;;;;;;;;;5055173;28;20059;-74
2022/09/08 11:55:19;;;;;;;14.57;7.57;;;;;;;;;;5055871;28;20105;-75
2022/09/08 11:57:48;;;;;;;27.35;15.80;;;;;;;;;;5052212;28;20025;-75
2022/09/08 12:00:19;;;;;;;20.73;10.95;;;;;;;;;;5037422;28;20053;-74
2022/09/08 12:03:03;;;;;;;18.58;7.30;;;;;;;;;;5028227;28;20037;-75
2022/09/08 12:05:39;;;;;;;19.05;8.32;;;;;;;;;;5036543;28;20547;-74
2022/09/08 12:08:26;;;;;;;15.80;7.75;;;;;;;;;;5035255;28;20028;-75
2022/09/08 12:11:01;;;;;;;13.60;7.45;;;;;;;;;;5035156;28;20534;-74
2022/09/08 12:13:30;;;;;;;21.13;8.23;;;;;;;;;;5017251;28;20029;-73
2022/09/08 12:15:56;;;;;;;15.40;7.40;;;;;;;;;;5034740;28;20075;-75
2022/09/08 12:18:41;;;;;;;19.48;8.20;;;;;;;;;;5034249;28;20025;-74
2022/09/08 12:21:28;;;;;;;20.00;8.15;;;;;;;;;;5037709;28;20178;-75
2022/09/08 12:23:59;;;;;;;18.27;8.73;;;;;;;;;;5040600;28;20061;-74
2022/09/08 12:26:33;;;;;;;15.63;7.93;;;;;;;;;;5033861;28;20433;-74
2022/09/08 12:28:59;;;;;;;14.60;8.00;;;;;;;;;;5033898;28;20080;-72
2022/09/08 12:31:37;;;;;;;18.52;8.40;;;;;;;;;;5034207;28;20022;-72
2022/09/08 12:34:18;;;;;;;15.32;7.97;;;;;;;;;;5035609;28;20025;-73
2022/09/08 12:36:49;;;;;;;14.70;8.10;;;;;;;;;;5017117;28;20017;-72
2022/09/08 12:39:34;;;;;;;16.60;8.25;;;;;;;;;;5018435;28;20017;-74
2022/09/08 12:42:24;;;;;;;18.90;8.73;;;;;;;;;;5016377;28;20075;-74
2022/09/08 12:45:10;;;;;;;38.08;20.02;;;;;;;;;;5017643;28;20548;-74
2022/09/08 12:47:46;;;;;;;21.13;10.35;;;;;;;;;;5033975;28;20028;-74
2022/09/08 12:50:31;;;;;;;17.88;8.55;;;;;;;;;;5037359;28;20089;-72
2022/09/08 12:53:09;;;;;;;20.23;11.05;;;;;;;;;;5033925;28;20037;-73
2022/09/08 12:55:47;;;;;;;24.58;10.32;;;;;;;;;;5034642;28;20445;-74
2022/09/08 12:58:21;;;;;;;27.25;12.38;;;;;;;;;;5033602;28;20080;-74
2022/09/08 13:01:10;;;;;;;14.60;8.87;;;;;;;;;;5033810;28;20387;-73
2022/09/08 13:03:37;;;;;;;19.95;9.85;;;;;;;;;;5016389;28;20264;-73
2022/09/08 13:06:13;;;;;;;18.23;9.48;;;;;;;;;;5033710;28;20032;-74
2022/09/08 13:08:50;;;;;;;26.50;13.73;;;;;;;;;;5037066;28;20022;-74
2022/09/08 13:11:21;;;;;;;39.10;20.70;;;;;;;;;;5039665;28;20052;-73
2022/09/08 13:13:48;;;;;;;31.08;14.80;;;;;;;;;;5037371;28;20126;-73
2022/09/08 13:16:20;;;;;;;22.48;9.98;;;;;;;;;;5016587;28;20036;-74
2022/09/08 13:19:02;;;;;;;18.73;9.40;;;;;;;;;;5034401;28;20033;-74
2022/09/08 13:21:37;;;;;;;17.90;8.93;;;;;;;;;;5035317;28;20108;-74
2022/09/08 13:24:22;;;;;;;19.40;9.23;;;;;;;;;;5033673;28;20040;-72
2022/09/08 13:27:00;;;;;;;16.70;8.80;;;;;;;;;;5019307;28;20026;-73
2022/09/08 13:29:45;;;;;;;18.63;9.88;;;;;;;;;;5019786;28;20079;-74
2022/09/08 13:32:23;;;;;;;18.77;9.13;;;;;;;;;;5016146;28;20026;-73
2022/09/08 13:35:09;;;;;;;19.30;9.95;;;;;;;;;;5033538;28;20452;-73
2022/09/08 13:37:44;;;;;;;16.55;8.60;;;;;;;;;;5032546;28;20391;-73
2022/09/08 13:40:17;;;;;;;15.20;7.85;;;;;;;;;;5032510;28;20029;-73
2022/09/08 13:42:55;;;;;;;15.27;8.18;;;;;;;;;;5032407;28;20072;-73
2022/09/08 13:45:21;;;;;;;16.60;8.05;;;;;;;;;;5033037;28;20367;-73
2022/09/08 13:48:06;;;;;;;14.55;9.60;;;;;;;;;;5032599;28;20036;-73
2022/09/08 13:50:40;;;;;;;13.65;8.55;;;;;;;;;;5032364;28;20083;-73
2022/09/08 13:53:13;;;;;;;14.65;7.63;;;;;;;;;;5014617;28;20113;-74
2022/09/08 13:55:52;;;;;;;15.15;7.80;;;;;;;;;;5032763;28;20537;-74
2022/09/08 13:58:32;;;;;;;14.57;8.20;;;;;;;;;;5036245;28;20087;-74
2022/09/08 14:01:00;;;;;;;17.70;7.65;;;;;;;;;;5036412;28;20033;-75
2022/09/08 14:03:29;;;;;;;16.75;8.05;;;;;;;;;;5018310;28;20017;-74
2022/09/08 14:05:57;;;;;;;12.07;6.45;;;;;;;;;;5021074;28;20029;-73
2022/09/08 14:08:29;;;;;;;10.10;5.10;;;;;;;;;;5044666;28;20075;-74
2022/09/08 14:10:58;;;;;;;12.80;7.20;;;;;;;;;;5046443;28;20034;-72
2022/09/08 14:13:34;;;;;;;8.88;5.70;;;;;;;;;;5044608;28;20060;-72
2022/09/08 14:16:12;;;;;;;10.25;6.20;;;;;;;;;;5042849;28;20029;-73
2022/09/08 14:18:38;;;;;;;13.63;6.85;;;;;;;;;;5024752;28;20093;-73
2022/09/08 14:21:29;;;;;;;10.73;5.25;;;;;;;;;;5040537;28;20033;-72
2022/09/08 14:24:01;;;;;;;9.68;6.05;;;;;;;;;;5044556;28;20040;-72
2022/09/08 14:26:30;;;;;;;11.77;5.63;;;;;;;;;;5022059;28;20029;-73
2022/09/08 14:29:11;;;;;;;9.80;6.15;;;;;;;;;;5037163;28;20030;-73
2022/09/08 14:31:43;;;;;;;11.63;6.97;;;;;;;;;;5037952;28;20055;-73
2022/09/08 14:34:20;;;;;;;7.80;5.05;;;;;;;;;;5015456;28;20036;-73
2022/09/08 14:37:01;;;;;;;13.05;7.50;;;;;;;;;;5018673;28;20035;-73
2022/09/08 14:39:33;;;;;;;8.20;6.10;;;;;;;;;;4932463;29;20027;-74
2022/09/08 14:42:12;;;;;;;9.73;6.35;;;;;;;;;;4932454;29;20028;-72
2022/09/08 14:44:58;;;;;;;9.68;5.45;;;;;;;;;;4934931;29;20428;-73
2022/09/08 14:47:30;;;;;;;8.13;4.80;;;;;;;;;;4929795;28;20505;-73
2022/09/08 14:50:07;;;;;;;8.43;4.72;;;;;;;;;;4938098;28;20020;-75
2022/09/08 14:52:39;;;;;;;7.60;4.53;;;;;;;;;;4916884;29;20024;-74
2022/09/08 14:55:41;;;;;;;39.75;20.63;;;;;;;;;;4917805;29;20039;-75
2022/09/08 14:58:22;;;;;;;13.10;7.28;;;;;;;;;;4962900;28;20078;-74
2022/09/08 15:00:50;;;;;;;9.73;4.63;;;;;;;;;;4926025;28;20044;-74